.
WxDataArchive / Data Records for 2012-11-20
2012-11-19 November 2012 2012-11-21

Data Records for Tuesday, 20 November 2012

Time	Temp	Chill	HIndex	Humid	Dewpt	 Wind 	HiWind	WindDir	Rain 	Barom 
-----	----	-----	------	-----	-----	------	------	-------	-----	----- 
00:00	42.5	42.5	42.5	75	35.1	0	0	---	0.00	30.158 
00:05	42.5	42.5	42.5	75	35.1	0	0	---	0.00	30.158 
00:10	42.5	42.5	42.5	76	35.5	0	0	---	0.00	30.158 
00:15	42.5	42.5	42.5	75	35.1	0	0	---	0.00	30.155 
00:20	42.8	42.8	42.8	75	35.4	0	0	---	0.00	30.155 
00:25	43.1	43.1	43.1	74	35.4	0	0	---	0.00	30.155 
00:30	43.3	43.3	43.3	73	35.2	0	0	---	0.00	30.152 
00:35	43.5	43.5	43.5	72	35.1	0	0	---	0.00	30.152 
00:40	43.6	43.6	43.6	73	35.5	0	0	---	0.00	30.152 
00:45	43.8	43.8	43.8	73	35.7	0	0	---	0.00	30.152 
00:50	43.8	43.8	43.8	71	35.0	0	0	---	0.00	30.152 
00:55	43.8	43.8	43.8	72	35.4	0	0	---	0.00	30.152 
01:00	43.8	43.8	43.8	72	35.4	0	0	---	0.00	30.152 
01:05	43.8	43.8	43.8	73	35.7	0	0	---	0.00	30.152 
01:10	43.8	43.8	43.8	73	35.7	0	0	---	0.00	30.152 
01:15	43.6	43.6	43.6	74	35.9	0	0	---	0.00	30.148 
01:20	43.6	43.6	43.6	74	35.9	0	0	---	0.00	30.148 
01:25	43.6	43.6	43.6	74	35.9	0	0	---	0.00	30.148 
01:30	43.6	43.6	43.6	74	35.9	0	0	---	0.00	30.141 
01:35	43.5	43.5	43.5	75	36.1	0	0	---	0.00	30.141 
01:40	43.5	43.5	43.5	75	36.1	0	0	---	0.00	30.141 
01:45	43.5	43.5	43.5	75	36.1	0	0	---	0.00	30.137 
01:50	43.3	43.3	43.3	75	35.9	0	0	---	0.00	30.137 
01:55	43.3	43.3	43.3	75	35.9	0	0	---	0.00	30.137 
02:00	43.3	43.3	43.3	75	35.9	0	0	---	0.00	30.136 
02:05	43.3	43.3	43.3	75	35.9	0	0	---	0.00	30.136 
02:10	43.3	43.3	43.3	75	35.9	0	0	---	0.00	30.136 
02:15	43.3	43.3	43.3	75	35.9	0	0	---	0.00	30.133 
02:20	43.2	43.2	43.2	75	35.8	0	0	---	0.00	30.133 
02:25	43.2	43.2	43.2	75	35.8	0	0	---	0.00	30.133 
02:30	43.1	43.1	43.1	75	35.7	0	0	---	0.00	30.132 
02:35	43.1	43.1	43.1	76	36.1	0	0	---	0.00	30.132 
02:40	43.1	43.1	43.1	77	36.4	0	0	---	0.00	30.132 
02:45	42.9	42.9	42.9	77	36.2	0	0	---	0.00	30.132 
02:50	42.9	42.9	42.9	77	36.2	0	0	---	0.00	30.132 
02:55	42.8	42.8	42.8	76	35.8	0	0	---	0.00	30.132 
03:00	42.8	42.8	42.8	75	35.4	0	0	---	0.00	30.128 
03:05	42.8	42.8	42.8	74	35.1	0	0	---	0.00	30.128 
03:10	42.8	42.8	42.8	74	35.1	0	0	---	0.00	30.128 
03:15	42.9	42.9	42.9	73	34.9	0	0	---	0.00	30.129 
03:20	42.9	42.9	42.9	73	34.9	0	0	---	0.00	30.129 
03:25	43.1	43.1	43.1	72	34.7	0	0	---	0.00	30.129 
03:30	43.1	43.1	43.1	71	34.3	0	0	---	0.00	30.132 
03:35	43.1	43.1	43.1	71	34.3	0	0	---	0.00	30.132 
03:40	43.2	43.2	43.2	71	34.4	0	0	---	0.00	30.132 
03:45	43.1	43.1	43.1	72	34.7	0	0	---	0.00	30.127 
03:50	43.1	43.1	43.1	72	34.7	0	0	---	0.00	30.127 
03:55	43.1	43.1	43.1	71	34.3	0	0	---	0.00	30.127 
04:00	43.1	43.1	43.1	70	34.0	0	0	---	0.00	30.120 
04:05	43.2	43.2	43.2	70	34.1	0	0	---	0.00	30.120 
04:10	43.2	43.2	43.2	70	34.1	0	0	---	0.00	30.120 
04:15	43.2	43.2	43.2	70	34.1	0	0	---	0.00	30.122 
04:20	43.3	43.3	43.3	70	34.2	0	0	---	0.00	30.122 
04:25	43.3	43.3	43.3	70	34.2	0	0	---	0.00	30.122 
04:30	43.3	43.3	43.3	70	34.2	0	0	---	0.00	30.120 
04:35	43.2	43.2	43.2	70	34.1	0	0	---	0.00	30.120 
04:40	43.2	43.2	43.2	70	34.1	0	0	---	0.00	30.120 
04:45	43.2	43.2	43.2	69	33.7	0	0	---	0.00	30.116 
04:50	43.3	43.3	43.3	69	33.8	0	0	---	0.00	30.116 
04:55	43.3	43.3	43.3	69	33.8	0	0	---	0.00	30.116 
05:00	43.3	43.3	43.3	69	33.8	0	0	---	0.00	30.114 
05:05	43.5	43.5	43.5	69	34.0	0	0	---	0.00	30.114 
05:10	43.6	43.6	43.6	68	33.7	0	0	---	0.00	30.114 
05:15	43.8	43.8	43.8	66	33.2	0	1	68	0.00	30.113 
05:20	44.1	44.1	44.1	65	33.1	0	0	---	0.00	30.113 
05:25	44.3	44.3	44.3	65	33.3	0	0	---	0.00	30.113 
05:30	44.5	44.5	44.5	65	33.5	0	0	---	0.00	30.117 
05:35	44.5	44.5	44.5	65	33.5	0	0	---	0.00	30.117 
05:40	44.5	44.5	44.5	65	33.5	0	0	---	0.00	30.117 
05:45	44.5	44.5	44.5	65	33.5	0	0	---	0.00	30.123 
05:50	44.3	44.3	44.3	66	33.7	0	0	---	0.00	30.123 
05:55	44.3	44.3	44.3	67	34.0	0	0	---	0.00	30.123 
06:00	44.2	44.2	44.2	68	34.3	0	0	---	0.00	30.123 
06:05	44.2	44.2	44.2	68	34.3	0	0	---	0.00	30.123 
06:10	44.1	44.1	44.1	68	34.2	0	0	---	0.00	30.123 
06:15	43.9	43.9	43.9	68	34.0	0	0	---	0.00	30.120 
06:20	43.8	43.8	43.8	69	34.3	0	0	---	0.00	30.120 
06:25	43.8	43.8	43.8	69	34.3	0	0	---	0.00	30.120 
06:30	43.6	43.6	43.6	69	34.1	0	0	---	0.00	30.117 
06:35	43.6	43.6	43.6	69	34.1	0	0	---	0.00	30.117 
06:40	43.6	43.6	43.6	69	34.1	0	0	---	0.00	30.117 
06:45	43.5	43.5	43.5	69	34.0	0	0	---	0.00	30.118 
06:50	43.5	43.5	43.5	70	34.4	0	0	---	0.00	30.118 
06:55	43.5	43.5	43.5	71	34.7	0	0	---	0.00	30.118 
07:00	43.5	43.5	43.5	71	34.7	0	0	---	0.00	30.121 
07:05	43.5	43.5	43.5	72	35.1	0	0	---	0.00	30.121 
07:10	43.5	43.5	43.5	72	35.1	0	0	---	0.00	30.121 
07:15	43.5	43.5	43.5	72	35.1	0	0	---	0.00	30.118 
07:20	43.5	43.5	43.5	72	35.1	0	0	---	0.00	30.118 
07:25	43.5	43.5	43.5	72	35.1	0	0	---	0.00	30.118 
07:30	43.5	43.5	43.5	73	35.4	0	0	---	0.00	30.117 
07:35	43.3	43.3	43.3	73	35.2	0	0	---	0.00	30.117 
07:40	43.3	43.3	43.3	73	35.2	0	0	---	0.00	30.117 
07:45	43.2	43.2	43.2	73	35.1	0	0	---	0.00	30.114 
07:50	42.9	42.9	42.9	74	35.2	0	0	---	0.00	30.114 
07:55	42.8	42.8	42.8	74	35.1	0	0	---	0.00	30.114 
08:00	42.6	42.6	42.6	75	35.2	0	1	68	0.00	30.121 
08:05	42.6	42.6	42.6	75	35.2	0	0	---	0.00	30.121 
08:10	42.5	42.5	42.5	77	35.8	0	0	---	0.00	30.121 
08:15	42.5	42.5	42.5	77	35.8	0	1	68	0.00	30.116 
08:20	42.6	42.6	42.6	77	35.9	0	0	---	0.00	30.116 
08:25	42.6	42.6	42.6	77	35.9	0	0	---	0.00	30.116 
08:30	42.8	42.8	42.8	77	36.1	0	0	---	0.00	30.127 
08:35	42.9	42.9	42.9	77	36.2	0	0	---	0.00	30.127 
08:40	42.9	42.9	42.9	77	36.2	0	0	---	0.00	30.127 
08:45	42.9	42.9	42.9	77	36.2	0	0	---	0.00	30.129 
08:50	42.9	42.9	42.9	77	36.2	0	0	---	0.00	30.129 
08:55	43.1	43.1	43.1	77	36.4	1	3	292	0.00	30.129 
09:00	43.5	43.5	43.5	76	36.4	1	3	292	0.00	30.129 
09:05	43.9	43.9	43.9	76	36.8	0	2	292	0.00	30.129 
09:10	44.2	44.2	44.2	75	36.8	1	3	270	0.00	30.129 
09:15	44.3	44.3	44.3	75	36.9	0	1	270	0.00	30.135 
09:20	44.5	44.5	44.5	76	37.4	1	4	270	0.00	30.135 
09:25	44.6	44.6	44.6	75	37.2	0	2	270	0.00	30.135 
09:30	44.9	44.9	44.9	75	37.5	1	2	270	0.00	30.126 
09:35	45.2	45.2	45.2	73	37.1	0	2	270	0.00	30.126 
09:40	45.5	45.5	45.5	72	37.0	1	3	270	0.00	30.126 
09:45	45.8	45.8	45.8	73	37.6	1	3	270	0.00	30.123 
09:50	46.1	46.1	46.1	72	37.6	1	3	292	0.00	30.123 
09:55	46.2	46.2	46.2	72	37.7	0	2	292	0.00	30.123 
10:00	46.4	46.4	46.4	72	37.9	1	3	292	0.00	30.123 
10:05	46.5	46.5	46.5	71	37.6	0	1	292	0.00	30.123 
10:10	46.7	46.7	46.7	71	37.8	0	1	292	0.00	30.123 
10:15	46.8	46.8	46.8	70	37.5	1	3	292	0.00	30.127 
10:20	47.0	47.0	47.0	70	37.7	0	2	292	0.00	30.127 
10:25	47.1	47.1	47.1	71	38.2	0	1	292	0.00	30.127 
10:30	47.1	47.1	47.1	71	38.2	0	1	292	0.00	30.126 
10:35	47.3	47.3	47.3	71	38.4	0	2	292	0.00	30.126 
10:40	47.4	47.4	47.4	71	38.5	0	1	292	0.00	30.126 
10:45	47.7	47.7	47.7	70	38.4	0	1	292	0.00	30.126 
10:50	47.9	47.9	47.9	68	37.9	1	4	292	0.00	30.126 
10:55	48.0	48.0	48.0	67	37.6	1	3	292	0.00	30.126 
11:00	48.3	48.3	48.3	67	37.9	1	4	90	0.00	30.125 
11:05	48.6	48.6	48.6	67	38.1	0	2	90	0.00	30.125 
11:10	48.9	48.9	48.9	68	38.8	0	2	90	0.00	30.125 
11:15	49.2	49.2	49.2	67	38.7	1	3	90	0.00	30.124 
11:20	49.4	49.4	49.4	66	38.5	1	2	90	0.00	30.124 
11:25	49.5	49.5	49.5	65	38.2	0	1	90	0.00	30.124 
11:30	49.5	49.5	49.5	65	38.2	0	1	90	0.00	30.123 
11:35	49.6	49.6	49.6	66	38.7	0	2	90	0.00	30.123 
11:40	49.6	49.6	49.6	66	38.7	0	2	90	0.01	30.123 
11:45	49.8	49.8	49.8	66	38.9	0	1	90	0.00	30.116 
11:50	49.9	49.9	49.9	65	38.6	0	1	90	0.00	30.116 
11:55	50.1	50.1	50.1	65	38.8	0	2	90	0.00	30.116 
12:00	50.1	50.1	50.1	65	38.8	0	1	90	0.00	30.110 
12:05	50.2	50.2	50.2	65	38.9	0	1	90	0.00	30.110 
12:10	50.4	50.4	50.4	64	38.7	0	1	90	0.00	30.110 
12:15	50.7	50.7	50.7	64	39.0	0	1	90	0.00	30.104 
12:20	50.8	50.8	50.8	63	38.7	0	1	90	0.00	30.104 
12:25	51.1	51.1	51.1	63	38.9	0	1	90	0.00	30.104 
12:30	51.4	51.4	51.4	63	39.2	0	1	90	0.00	30.092 
12:35	51.7	51.7	51.7	63	39.5	0	1	90	0.00	30.092 
12:40	52.0	52.0	52.0	62	39.4	0	1	90	0.00	30.092 
12:45	52.2	52.2	52.2	63	40.0	0	1	90	0.00	30.085 
12:50	52.5	52.5	52.5	63	40.3	0	0	---	0.00	30.085 
12:55	52.6	52.6	52.6	63	40.4	0	1	90	0.00	30.085 
13:00	52.8	52.8	52.8	63	40.6	0	1	90	0.00	30.079 
13:05	52.9	52.9	52.9	62	40.2	0	2	90	0.00	30.079 
13:10	53.1	53.1	53.1	62	40.4	0	1	90	0.00	30.079 
13:15	53.2	53.2	53.2	62	40.5	0	1	90	0.00	30.073 
13:20	53.2	53.2	53.2	62	40.5	0	1	90	0.00	30.073 
13:25	53.2	53.2	53.2	62	40.5	0	1	90	0.00	30.073 
13:30	53.2	53.2	53.2	63	40.9	0	1	90	0.00	30.073 
13:35	53.2	53.2	53.2	64	41.3	0	0	---	0.00	30.073 
13:40	53.3	53.3	53.3	63	41.0	0	0	---	0.00	30.073 
13:45	53.3	53.3	53.3	63	41.0	0	1	90	0.00	30.072 
13:50	53.2	53.2	53.2	64	41.3	0	0	---	0.00	30.072 
13:55	53.3	53.3	53.3	64	41.4	0	1	90	0.00	30.072 
14:00	53.3	53.3	53.3	65	41.8	0	0	---	0.00	30.072 
14:05	53.5	53.5	53.5	64	41.6	0	0	---	0.00	30.072 
14:10	53.5	53.5	53.5	64	41.6	0	0	---	0.00	30.072 
14:15	53.3	53.3	53.3	64	41.4	0	1	90	0.00	30.072 
14:20	53.3	53.3	53.3	64	41.4	0	0	---	0.00	30.072 
14:25	53.3	53.3	53.3	64	41.4	0	0	---	0.00	30.072 
14:30	53.3	53.3	53.3	64	41.4	0	0	---	0.00	30.072 
14:35	53.3	53.3	53.3	64	41.4	0	0	---	0.00	30.072 
14:40	53.3	53.3	53.3	64	41.4	0	0	---	0.00	30.072 
14:45	53.3	53.3	53.3	64	41.4	0	0	---	0.00	30.072 
14:50	53.3	53.3	53.3	64	41.4	0	0	---	0.00	30.072 
14:55	53.3	53.3	53.3	65	41.8	0	0	---	0.00	30.072 
15:00	53.2	53.2	53.2	68	42.9	0	0	---	0.00	30.069 
15:05	53.1	53.1	53.1	68	42.8	0	0	---	0.00	30.069 
15:10	52.9	52.9	52.9	68	42.6	0	0	---	0.00	30.069 
15:15	52.9	52.9	52.9	69	43.0	0	0	---	0.00	30.065 
15:20	52.8	52.8	52.8	70	43.3	0	0	---	0.00	30.065 
15:25	52.8	52.8	52.8	69	42.9	0	0	---	0.00	30.065 
15:30	52.8	52.8	52.8	69	42.9	0	0	---	0.00	30.070 
15:35	52.8	52.8	52.8	70	43.3	0	0	---	0.00	30.070 
15:40	52.8	52.8	52.8	69	42.9	0	0	---	0.00	30.070 
15:45	52.8	52.8	52.8	69	42.9	0	0	---	0.00	30.072 
15:50	52.8	52.8	52.8	69	42.9	0	0	---	0.00	30.072 
15:55	52.8	52.8	52.8	70	43.3	0	0	---	0.00	30.072 
16:00	52.8	52.8	52.8	71	43.7	0	0	---	0.00	30.078 
16:05	52.6	52.6	52.6	70	43.1	0	0	---	0.00	30.078 
16:10	52.6	52.6	52.6	71	43.5	0	0	---	0.00	30.078 
16:15	52.5	52.5	52.5	71	43.4	0	0	---	0.00	30.080 
16:20	52.5	52.5	52.5	72	43.7	0	0	---	0.00	30.080 
16:25	52.2	52.2	52.2	73	43.8	0	0	---	0.00	30.080 
16:30	52.2	52.2	52.2	72	43.4	0	0	---	0.00	30.079 
16:35	52.0	52.0	52.0	73	43.6	0	0	---	0.00	30.079 
16:40	52.0	52.0	52.0	73	43.6	0	0	---	0.00	30.079 
16:45	51.9	51.9	51.9	73	43.5	0	0	---	0.00	30.083 
16:50	51.7	51.7	51.7	73	43.3	0	0	---	0.00	30.083 
16:55	51.7	51.7	51.7	73	43.3	0	0	---	0.00	30.083 
17:00	51.6	51.6	51.6	74	43.6	0	0	---	0.00	30.087 
17:05	51.6	51.6	51.6	74	43.6	0	0	---	0.00	30.087 
17:10	51.4	51.4	51.4	74	43.4	0	0	---	0.00	30.087 
17:15	51.3	51.3	51.3	74	43.3	0	0	---	0.00	30.089 
17:20	51.1	51.1	51.1	74	43.1	0	0	---	0.00	30.089 
17:25	51.1	51.1	51.1	75	43.5	0	0	---	0.00	30.089 
17:30	51.1	51.1	51.1	76	43.8	0	0	---	0.00	30.090 
17:35	51.0	51.0	51.0	76	43.7	0	0	---	0.00	30.090 
17:40	50.8	50.8	50.8	76	43.5	0	0	---	0.00	30.090 
17:45	50.7	50.7	50.7	76	43.4	0	0	---	0.00	30.090 
17:50	50.7	50.7	50.7	76	43.4	0	0	---	0.00	30.090 
17:55	50.5	50.5	50.5	76	43.2	0	0	---	0.00	30.090 
18:00	50.4	50.4	50.4	76	43.1	0	0	---	0.00	30.092 
18:05	50.2	50.2	50.2	76	42.9	0	0	---	0.00	30.092 
18:10	50.2	50.2	50.2	77	43.3	0	0	---	0.00	30.092 
18:15	50.2	50.2	50.2	77	43.3	0	0	---	0.00	30.094 
18:20	50.2	50.2	50.2	77	43.3	0	0	---	0.00	30.094 
18:25	50.1	50.1	50.1	77	43.2	0	0	---	0.00	30.094 
18:30	50.1	50.1	50.1	77	43.2	0	0	---	0.00	30.104 
18:35	50.2	50.2	50.2	78	43.6	0	0	---	0.00	30.104 
18:40	50.2	50.2	50.2	78	43.6	0	0	---	0.00	30.104 
18:45	50.2	50.2	50.2	78	43.6	0	0	---	0.00	30.111 
18:50	50.2	50.2	50.2	77	43.3	0	0	---	0.00	30.111 
18:55	50.2	50.2	50.2	77	43.3	0	0	---	0.00	30.111 
19:00	50.2	50.2	50.2	76	42.9	0	0	---	0.00	30.117 
19:05	50.2	50.2	50.2	76	42.9	0	0	---	0.00	30.117 
19:10	50.1	50.1	50.1	76	42.8	0	0	---	0.00	30.117 
19:15	50.1	50.1	50.1	75	42.5	0	0	---	0.00	30.119 
19:20	50.1	50.1	50.1	75	42.5	0	0	---	0.00	30.119 
19:25	49.9	49.9	49.9	75	42.3	0	0	---	0.00	30.119 
19:30	49.8	49.8	49.8	75	42.2	0	0	---	0.00	30.122 
19:35	49.8	49.8	49.8	75	42.2	0	0	---	0.00	30.122 
19:40	49.6	49.6	49.6	75	42.0	0	0	---	0.00	30.122 
19:45	49.6	49.6	49.6	76	42.3	0	0	---	0.00	30.124 
19:50	49.5	49.5	49.5	76	42.3	0	0	---	0.00	30.124 
19:55	49.5	49.5	49.5	76	42.3	0	0	---	0.00	30.124 
20:00	49.4	49.4	49.4	76	42.2	0	0	---	0.00	30.123 
20:05	49.2	49.2	49.2	76	42.0	0	0	---	0.00	30.123 
20:10	49.1	49.1	49.1	77	42.2	0	0	---	0.00	30.123 
20:15	49.1	49.1	49.1	78	42.5	0	0	---	0.00	30.121 
20:20	48.9	48.9	48.9	79	42.7	0	0	---	0.00	30.121 
20:25	48.8	48.8	48.8	79	42.6	0	0	---	0.00	30.121 
20:30	48.8	48.8	48.8	79	42.6	0	0	---	0.00	30.122 
20:35	48.6	48.6	48.6	79	42.4	0	0	---	0.00	30.122 
20:40	48.6	48.6	48.6	79	42.4	0	0	---	0.00	30.122 
20:45	48.6	48.6	48.6	79	42.4	0	0	---	0.00	30.128 
20:50	48.6	48.6	48.6	78	42.1	0	0	---	0.00	30.128 
20:55	48.6	48.6	48.6	78	42.1	0	0	---	0.00	30.128 
21:00	48.6	48.6	48.6	77	41.7	0	0	---	0.00	30.132 
21:05	48.8	48.8	48.8	77	41.9	0	1	90	0.00	30.132 
21:10	48.8	48.8	48.8	76	41.6	0	0	---	0.00	30.132 
21:15	48.8	48.8	48.8	76	41.6	0	0	---	0.00	30.129 
21:20	48.8	48.8	48.8	75	41.2	0	0	---	0.00	30.129 
21:25	48.8	48.8	48.8	75	41.2	0	0	---	0.00	30.129 
21:30	48.8	48.8	48.8	74	40.9	0	0	---	0.00	30.136 
21:35	48.6	48.6	48.6	74	40.7	0	0	---	0.00	30.136 
21:40	48.6	48.6	48.6	74	40.7	0	0	---	0.00	30.136 
21:45	48.5	48.5	48.5	75	40.9	0	0	---	0.00	30.137 
21:50	48.3	48.3	48.3	75	40.7	0	0	---	0.00	30.137 
21:55	48.2	48.2	48.2	75	40.7	0	0	---	0.00	30.137 
22:00	48.0	48.0	48.0	75	40.5	0	0	---	0.00	30.138 
22:05	47.9	47.9	47.9	75	40.4	0	0	---	0.00	30.138 
22:10	47.6	47.6	47.6	75	40.1	0	0	---	0.00	30.138 
22:15	47.4	47.4	47.4	76	40.2	0	0	---	0.00	30.141 
22:20	47.3	47.3	47.3	77	40.5	0	0	---	0.00	30.141 
22:25	47.1	47.1	47.1	77	40.3	0	0	---	0.00	30.141 
22:30	46.8	46.8	46.8	77	40.0	0	0	---	0.00	30.142 
22:35	46.7	46.7	46.7	77	39.9	0	0	---	0.00	30.142 
22:40	46.4	46.4	46.4	78	39.9	0	0	---	0.00	30.142 
22:45	46.1	46.1	46.1	79	40.0	0	0	---	0.00	30.146 
22:50	45.8	45.8	45.8	79	39.7	0	0	---	0.00	30.146 
22:55	45.4	45.4	45.4	80	39.6	0	0	---	0.00	30.146 
23:00	45.1	45.1	45.1	80	39.3	0	0	---	0.00	30.153 
23:05	44.6	44.6	44.6	80	38.8	0	0	---	0.00	30.153 
23:10	44.3	44.3	44.3	81	38.8	0	0	---	0.00	30.153 
23:15	44.1	44.1	44.1	82	39.0	0	0	---	0.00	30.152 
23:20	43.8	43.8	43.8	82	38.7	0	0	---	0.00	30.152 
23:25	43.6	43.6	43.6	83	38.8	0	0	---	0.00	30.152 
23:30	43.3	43.3	43.3	83	38.5	0	0	---	0.00	30.152 
23:35	43.1	43.1	43.1	84	38.6	0	0	---	0.00	30.152 
23:40	42.8	42.8	42.8	84	38.3	0	0	---	0.00	30.152 
23:45	42.5	42.5	42.5	85	38.3	0	0	---	0.00	30.148 
23:50	42.2	42.2	42.2	86	38.3	0	0	---	0.00	30.148 
23:55	41.9	41.9	41.9	86	38.0	0	0	---	0.00	30.148 

CoCoRaHS
IN-AL-39
A2 Web Hosting
Creative Commons License
GoDaddy
search engine by freefind advanced

loaded 2018-11-13 02:32:03 • last modified 2010-11-18 10:43:29
Privacy PolicyDisclaimer
• wx.awcolley.com is powered by PmWiki v.2002016 •
• all content (unless otherwise noted) © 2018 A W Colley